Flight Track Log - Related Links

Times and Time Zones

All times are in EDT time to prevent confusion due to time zone crossing. See the EGF3332 flight status page for this flight to view local times or setup timezone preferences in your user account.

Time Position Orientation Groundspeed Altitude Reporting Facility
EDT Latitude Longitude Course Direction KTS MPH feet Rate Location/Type
Fri 07:04:15 AM 33.6502 -101.7988 275° West  Level FlightAware Approximate
Fri 07:05:04 AM 33.6528 -101.8325 76° East 162 186 3,700  Level Fort Worth Center
Fri 07:06:32 AM 33.6706 -101.7436 64° Northeast 249 287 6,200 1,873 Climbing Fort Worth Center
Fri 07:07:41 AM 33.7094 -101.6481 81° East 285 328 8,600 1,892 Climbing Fort Worth Center
Fri 07:08:42 AM 33.7231 -101.5489 86° East 307 353 10,300 1,469 Climbing Fort Worth Center
Fri 07:09:19 AM 33.7272 -101.4817 88° East 313 360 11,000 857 Climbing Fort Worth Center
Fri 07:10:20 AM 33.7308 -101.3769 89° East 348 400 11,700 1,160 Climbing Fort Worth Center
Fri 07:11:18 AM 33.7328 -101.2447 96° East 362 417 13,300 1,538 Climbing Fort Worth Center
Fri 07:12:17 AM 33.7236 -101.1319 91° East 367 422 14,700 1,513 Climbing Fort Worth Center
Fri 07:13:17 AM 33.7214 -100.9944 94° East 368 423 16,300 1,500 Climbing Fort Worth Center
Fri 07:14:17 AM 33.7142 -100.8844 91° East 368 423 17,700 1,512 Climbing Fort Worth Center
Fri 07:15:20 AM 33.7114 -100.7494 94° East 368 423 19,400 1,463 Climbing Fort Worth Center
Fri 07:16:20 AM 33.7042 -100.6317 94° East 374 430 20,700 1,487 Climbing Fort Worth Center
Fri 07:17:17 AM 33.6969 -100.5067 93° East 374 430 22,300 1,563 Climbing Fort Worth Center
Fri 07:18:19 AM 33.6917 -100.3792 93° East 379 436 23,800 1,415 Climbing Fort Worth Center
Fri 07:19:20 AM 33.6844 -100.2367 94° East 384 442 25,200 1,240 Climbing Fort Worth Center
Fri 07:20:20 AM 33.6769 -100.1017 94° East 389 448 26,300 915 Climbing Fort Worth Center
Fri 07:21:18 AM 33.6694 -99.9642 93° East 404 465 27,000 356 Climbing Fort Worth Center
Fri 07:22:18 AM 33.6619 -99.8167 94° East 420 483 27,000  Level Fort Worth Center
Fri 07:23:17 AM 33.6522 -99.6642 93° East 440 506 27,000  Level Fort Worth Center
Fri 07:24:20 AM 33.6444 -99.5069 94° East 460 529 27,000  Level Fort Worth Center
Fri 07:25:19 AM 33.6344 -99.3444 95° East 472 543 27,000  Level Fort Worth Center
Fri 07:26:19 AM 33.6225 -99.1819 92° East 479 551 27,000  Level Fort Worth Center
Fri 07:27:18 AM 33.6181 -99.0397 96° East 479 551 27,000  Level Fort Worth Center
Fri 07:28:18 AM 33.6036 -98.8650 94° East 479 551 27,000  Level Fort Worth Center
Fri 07:29:18 AM 33.5928 -98.7003 103° East 489 563 27,000  Level Fort Worth Center
Fri 07:30:19 AM 33.5631 -98.5403 105° East 479 551 27,000 -350 Level Fort Worth Center
Fri 07:31:18 AM 33.5267 -98.3803 102° East 490 564 26,300 -1,613 Descending Fort Worth Center
Fri 07:32:18 AM 33.4986 -98.2256 104° East 485 558 23,800 -2,678 Descending Fort Worth Center
Fri 07:33:19 AM 33.4683 -98.0758 103° East 469 540 20,900 -2,824 Descending Fort Worth Center
Fri 07:34:17 AM 33.4439 -97.9486 102° East 442 509 18,200 -2,969 Descending Fort Worth Center
Fri 07:34:56 AM 33.4256 -97.8450 103° East 430 495 16,100 -2,734 Descending FAA TRACON SMA TRACON (SMA)
Fri 07:35:36 AM 33.4094 -97.7603 105° East 425 489 14,600 -2,400 Descending FAA TRACON SMA TRACON (SMA)
Fri 07:36:16 AM 33.3897 -97.6700 126° Southeast 407 468 12,900 -2,582 Descending FAA TRACON SMA TRACON (SMA)
Fri 07:36:55 AM 33.3442 -97.5953 136° Southeast 408 470 11,200 -1,443 Descending FAA TRACON SMA TRACON (SMA)
Fri 07:37:35 AM 33.2950 -97.5381 136° Southeast 401 461 11,000 -148 Descending FAA TRACON SMA TRACON (SMA)
Fri 07:38:16 AM 33.2394 -97.4736 136° Southeast 401 461 11,000  Level FAA TRACON SMA TRACON (SMA)
Fri 07:38:56 AM 33.1833 -97.4086 136° Southeast 406 467 11,000  Level FAA TRACON SMA TRACON (SMA)
Fri 07:39:36 AM 33.1272 -97.3431 136° Southeast 408 470 11,000  Level FAA TRACON SMA TRACON (SMA)
Fri 07:40:16 AM 33.0772 -97.2858 135° Southeast 405 466 11,000  Level FAA TRACON SMA TRACON (SMA)
Fri 07:40:56 AM 33.0281 -97.2275 138° Southeast 350 403 11,000 -76 Level FAA TRACON SMA TRACON (SMA)
Fri 07:41:35 AM 32.9897 -97.1858 170° South 296 341 10,900 -450 Descending FAA TRACON SMA TRACON (SMA)
Fri 07:42:16 AM 32.9375 -97.1753 178° South 276 318 10,400 -1,425 Descending FAA TRACON SMA TRACON (SMA)
Fri 07:42:55 AM 32.8858 -97.1733 178° South 266 306 9,000 -2,051 Descending FAA TRACON SMA TRACON (SMA)
Fri 07:43:35 AM 32.8372 -97.1714 178° South 248 285 7,700 -1,926 Descending FAA TRACON SMA TRACON (SMA)
Fri 07:44:16 AM 32.7958 -97.1697 140° Southeast 241 277 6,400 -2,148 Descending FAA TRACON SMA TRACON (SMA)
Fri 07:44:56 AM 32.7628 -97.1367 88° East 256 295 4,800 -2,203 Descending FAA TRACON SMA TRACON (SMA)
Fri 07:45:35 AM 32.7644 -97.0853 88° East 228 262 3,500 -2,000 Descending FAA TRACON SMA TRACON (SMA)

Login

Don't have an account? Register now (free) for customized features, flight alerts, and more!